createdAt,value
2018-05-15T00:00:45.359Z,97219.98
2018-05-15T00:03:15.333Z,97214.84
2018-05-15T00:05:45.024Z,97205.02
2018-05-15T00:08:16.462Z,97203.37
2018-05-15T00:10:46.546Z,97196.03
2018-05-15T00:13:17.943Z,97197.81
2018-05-15T00:15:49.307Z,97191.42
2018-05-15T00:18:19.711Z,97196.98
2018-05-15T00:20:49.464Z,97190.52
2018-05-15T00:23:19.117Z,97176.39
2018-05-15T00:25:48.824Z,97172.44
2018-05-15T00:28:19.382Z,97181.87
2018-05-15T00:30:49.263Z,97183.07
2018-05-15T00:33:19.099Z,97179.19
2018-05-15T00:35:49.711Z,97183.00
2018-05-15T00:38:20.083Z,97179.06
2018-05-15T00:40:50.367Z,97183.14
2018-05-15T00:43:20.113Z,97174.92
2018-05-15T00:45:50.074Z,97184.70
2018-05-15T00:48:20.282Z,97172.31
2018-05-15T00:50:51.976Z,97168.67
2018-05-15T00:53:40.467Z,97154.45
2018-05-15T00:56:10.847Z,97150.47
2018-05-15T00:58:41.557Z,97156.01
2018-05-15T01:01:11.940Z,97167.73
2018-05-15T01:03:41.810Z,97145.73
2018-05-15T01:06:12.043Z,97143.77
2018-05-15T01:08:41.884Z,97152.70
2018-05-15T01:11:11.812Z,97158.03
2018-05-15T01:13:41.990Z,97160.70
2018-05-15T01:16:12.263Z,97154.47
2018-05-15T01:18:42.847Z,97151.39
2018-05-15T01:21:13.488Z,97140.33
2018-05-15T01:23:43.313Z,97137.86
2018-05-15T01:26:13.194Z,97137.94
2018-05-15T01:28:42.953Z,97134.98
2018-05-15T01:31:21.535Z,97123.75
2018-05-15T01:33:51.622Z,97134.57
2018-05-15T01:36:21.970Z,97115.95
2018-05-15T01:39:04.138Z,97120.73
2018-05-15T01:41:35.235Z,97112.77
2018-05-15T01:44:06.135Z,97120.41
2018-05-15T01:46:36.570Z,97132.03
2018-05-15T01:49:07.173Z,97117.40
2018-05-15T01:51:36.704Z,97121.27
2018-05-15T01:54:07.767Z,97114.88
2018-05-15T01:56:37.637Z,97116.47
2018-05-15T01:59:07.880Z,97112.11
2018-05-15T02:01:39.319Z,97095.13
2018-05-15T02:04:10.222Z,97090.95
2018-05-15T02:06:42.821Z,97094.16
2018-05-15T02:09:14.284Z,97098.31
2018-05-15T02:15:15.098Z,97092.34
2018-05-15T02:17:46.071Z,97094.52
2018-05-15T02:23:38.903Z,97090.78
2018-05-15T02:26:08.601Z,97082.05
2018-05-15T02:28:40.182Z,97090.29
2018-05-15T02:31:10.168Z,97092.77
2018-05-15T02:34:26.568Z,97083.61
2018-05-15T02:37:09.408Z,97078.28
2018-05-15T02:39:45.394Z,97083.09
2018-05-15T02:42:16.517Z,97086.23
2018-05-15T02:44:46.471Z,97080.83
2018-05-15T02:47:16.430Z,97056.18
2018-05-15T02:49:48.459Z,97068.76
2018-05-15T02:52:18.437Z,97072.72
2018-05-15T02:54:48.323Z,97072.79
2018-05-15T02:57:18.760Z,97062.42
2018-05-15T03:00:09.900Z,97059.69
2018-05-15T03:02:40.025Z,97068.06
2018-05-15T03:05:09.561Z,97044.38
2018-05-15T03:07:41.390Z,97070.18
2018-05-15T03:10:11.367Z,97059.34
2018-05-15T03:12:41.947Z,97044.05
2018-05-15T03:15:11.822Z,97061.58
2018-05-15T03:17:42.453Z,97055.69
2018-05-15T03:20:12.758Z,97046.03
2018-05-15T03:22:42.453Z,97048.70
2018-05-15T03:25:12.080Z,97052.49
2018-05-15T03:27:43.928Z,97024.10
2018-05-15T03:30:13.705Z,97051.08
2018-05-15T03:32:44.891Z,97047.50
2018-05-15T03:35:16.997Z,97052.02
2018-05-15T03:37:47.476Z,97042.56
2018-05-15T03:40:34.536Z,97050.96
2018-05-15T03:53:44.638Z,97045.02
2018-05-15T03:56:14.435Z,97051.41
2018-05-15T03:58:44.133Z,97058.78
2018-05-15T04:01:32.275Z,97065.27
2018-05-15T04:04:20.241Z,97047.81
2018-05-15T04:07:07.585Z,97047.18
2018-05-15T04:09:37.372Z,97042.61
2018-05-15T04:12:07.421Z,97041.34
2018-05-15T04:14:37.932Z,97048.48
2018-05-15T04:17:08.938Z,97051.13
2018-05-15T04:19:39.805Z,97040.00
2018-05-15T04:22:09.470Z,97038.96
2018-05-15T04:24:39.405Z,97060.19
2018-05-15T04:27:09.102Z,97056.56
2018-05-15T04:29:39.710Z,97049.44
2018-05-15T04:32:09.353Z,97051.64
2018-05-15T04:34:39.489Z,97064.50
2018-05-15T04:37:09.165Z,97058.17
2018-05-15T04:39:39.417Z,97060.88
2018-05-15T04:42:09.713Z,97068.76
2018-05-15T04:44:41.070Z,97066.70
2018-05-15T04:47:10.698Z,97063.60
2018-05-15T04:49:41.946Z,97055.87
2018-05-15T04:52:11.639Z,97071.88
2018-05-15T04:54:41.766Z,97058.52
2018-05-15T04:57:11.435Z,97060.63
2018-05-15T04:59:41.737Z,97058.93
2018-05-15T05:02:11.314Z,97063.23
2018-05-15T05:04:41.193Z,97072.11
2018-05-15T05:07:10.944Z,97079.19
2018-05-15T05:09:40.932Z,97100.35
2018-05-15T05:12:10.573Z,97084.22
2018-05-15T05:14:40.230Z,97097.34
2018-05-15T05:17:10.515Z,97082.24
2018-05-15T05:19:40.703Z,97076.95
2018-05-15T05:22:10.437Z,97079.53
2018-05-15T05:24:40.295Z,97087.70
2018-05-15T05:27:10.892Z,97081.13
2018-05-15T05:29:41.947Z,97070.08
2018-05-15T05:32:11.634Z,97065.64
2018-05-15T05:34:41.609Z,97071.90
2018-05-15T05:37:13.923Z,97079.90
2018-05-15T05:39:43.628Z,97066.66
2018-05-15T05:42:13.196Z,97074.31
2018-05-15T05:44:43.055Z,97064.15
2018-05-15T05:47:12.655Z,97058.76
2018-05-15T05:49:42.340Z,97068.61
2018-05-15T05:52:11.879Z,97073.38
2018-05-15T05:54:42.863Z,97060.53
2018-05-15T05:57:12.318Z,97074.48
2018-05-15T05:59:42.857Z,97098.04
2018-05-15T06:02:12.573Z,97085.80
2018-05-15T06:04:42.227Z,97078.73
2018-05-15T06:07:12.809Z,97073.19
2018-05-15T06:09:42.372Z,97077.11
2018-05-15T06:12:13.906Z,97064.27
2018-05-15T06:14:45.115Z,97068.13
2018-05-15T06:17:14.605Z,97059.45
2018-05-15T06:19:46.042Z,97063.78
2018-05-15T06:22:15.902Z,97074.47
2018-05-15T06:24:45.697Z,97058.37
2018-05-15T06:27:15.320Z,97063.61
2018-05-15T06:29:45.213Z,97075.25
2018-05-15T06:32:14.739Z,97075.77
2018-05-15T06:34:44.296Z,97071.39
2018-05-15T06:37:15.976Z,97074.67
2018-05-15T06:39:46.867Z,97067.42
2018-05-15T06:42:17.156Z,97075.13
2018-05-15T06:44:46.852Z,97078.19
2018-05-15T06:47:32.968Z,97085.48
2018-05-15T06:50:07.050Z,97082.95
2018-05-15T06:52:38.840Z,97079.05
2018-05-15T06:55:09.345Z,97072.23
2018-05-15T06:57:39.483Z,97076.11
2018-05-15T07:00:09.100Z,97076.03
2018-05-15T07:02:39.561Z,97073.13
2018-05-15T07:05:10.596Z,97071.20
2018-05-15T07:07:43.552Z,97070.63
2018-05-15T07:10:13.356Z,97074.72
2018-05-15T07:12:46.425Z,97072.27
2018-05-15T07:15:18.072Z,97077.52
2018-05-15T07:17:47.733Z,97076.48
2018-05-15T07:20:19.165Z,97075.89
2018-05-15T07:22:49.991Z,97076.56
2018-05-15T07:25:20.837Z,97078.27
2018-05-15T07:27:57.881Z,97075.84
2018-05-15T07:30:27.527Z,97070.38
2018-05-15T07:32:57.105Z,97071.47
2018-05-15T07:35:26.885Z,97070.56
2018-05-15T07:37:56.695Z,97067.30
2018-05-15T07:40:27.078Z,97063.73
2018-05-15T07:42:56.959Z,97074.55
2018-05-15T07:45:27.884Z,97073.13
2018-05-15T07:47:58.276Z,97063.52
2018-05-15T07:50:27.876Z,97073.22
2018-05-15T07:52:57.792Z,97076.36
2018-05-15T07:55:27.512Z,97087.45
2018-05-15T07:57:57.910Z,97080.66
2018-05-15T08:00:27.567Z,97081.09
2018-05-15T08:02:58.768Z,97078.11
2018-05-15T08:05:28.501Z,97084.55
2018-05-15T08:07:58.747Z,97081.78
2018-05-15T08:10:29.234Z,97077.34
2018-05-15T08:12:58.834Z,97081.99
2018-05-15T08:15:28.373Z,97079.05
2018-05-15T08:17:58.174Z,97081.31
2018-05-15T08:20:27.652Z,97085.97
2018-05-15T08:22:58.177Z,97089.45
2018-05-15T08:25:27.690Z,97089.20
2018-05-15T08:27:57.215Z,97095.34
2018-05-15T08:30:28.050Z,97106.75
2018-05-15T08:32:57.605Z,97100.84
2018-05-15T08:35:27.867Z,97102.61
2018-05-15T08:37:57.903Z,97102.72
2018-05-15T08:40:27.515Z,97103.31
2018-05-15T08:42:57.105Z,97095.94
2018-05-15T08:45:26.915Z,97093.30
2018-05-15T08:47:56.519Z,97099.75
2018-05-15T08:50:26.221Z,97100.88
2018-05-15T08:52:56.089Z,97106.01
2018-05-15T08:55:26.399Z,97119.06
2018-05-15T08:57:55.955Z,97115.25
2018-05-15T09:00:26.318Z,97112.18
2018-05-15T09:02:56.401Z,97104.02
2018-05-15T09:05:26.884Z,97110.66
2018-05-15T09:07:56.501Z,97102.66
2018-05-15T09:10:26.345Z,97122.06
2018-05-15T09:12:57.205Z,97115.63
2018-05-15T09:15:29.733Z,97111.98
2018-05-15T09:18:02.262Z,97111.20
2018-05-15T09:20:34.354Z,97110.73
2018-05-15T09:23:08.596Z,97111.45
2018-05-15T09:25:49.683Z,97124.31
2018-05-15T09:28:21.367Z,97118.97
2018-05-15T09:30:53.140Z,97125.23
2018-05-15T09:33:23.401Z,97128.56
2018-05-15T09:35:54.559Z,97133.43
2018-05-15T09:38:27.374Z,97132.73
2018-05-15T09:40:59.755Z,97115.87
2018-05-15T09:43:59.368Z,97140.01
2018-05-15T09:46:29.661Z,97138.34
2018-05-15T09:49:00.161Z,97141.39
2018-05-15T09:51:29.660Z,97137.31
2018-05-15T09:53:59.188Z,97141.98
2018-05-15T09:56:28.852Z,97151.81
2018-05-15T09:58:58.392Z,97144.31
2018-05-15T10:01:28.203Z,97146.91
2018-05-15T10:03:58.788Z,97148.80
2018-05-15T10:06:29.157Z,97150.63
2018-05-15T10:08:58.649Z,97152.15
2018-05-15T10:11:28.442Z,97146.05
2018-05-15T10:13:58.008Z,97147.98
2018-05-15T10:16:29.258Z,97151.91
2018-05-15T10:18:58.813Z,97148.28
2018-05-15T10:21:28.462Z,97151.75
2018-05-15T10:23:58.540Z,97154.30
2018-05-15T10:26:29.085Z,97156.47
2018-05-15T10:28:59.910Z,97153.43
2018-05-15T10:31:29.480Z,97151.67
2018-05-15T10:33:59.976Z,97166.16
2018-05-15T10:36:30.191Z,97165.37
2018-05-15T10:38:59.745Z,97171.44
2018-05-15T10:41:30.036Z,97167.66
2018-05-15T10:44:00.678Z,97166.41
2018-05-15T10:46:32.144Z,97171.79
2018-05-15T10:49:03.013Z,97172.30
2018-05-15T10:51:32.659Z,97158.78
2018-05-15T10:54:02.377Z,97166.19
2018-05-15T10:56:31.903Z,97153.52
2018-05-15T10:59:01.400Z,97147.62
2018-05-15T11:01:31.175Z,97158.95
2018-05-15T11:04:01.593Z,97151.31
2018-05-15T11:06:31.207Z,97151.35
2018-05-15T11:09:01.426Z,97158.34
2018-05-15T11:11:31.062Z,97159.68
2018-05-15T11:14:00.592Z,97156.91
2018-05-15T11:16:30.353Z,97158.31
2018-05-15T11:25:11.254Z,97157.59
2018-05-15T11:30:46.200Z,97161.58
2018-05-15T11:40:09.708Z,97167.37
2018-05-15T11:45:56.710Z,97149.87
2018-05-15T11:51:31.824Z,97159.88
2018-05-15T12:03:21.704Z,97161.23
2018-05-15T12:05:51.586Z,97159.88
2018-05-15T12:08:21.656Z,97163.81
2018-05-15T12:10:52.921Z,97169.21
2018-05-15T12:13:23.382Z,97166.69
2018-05-15T12:15:52.887Z,97170.47
2018-05-15T12:18:22.430Z,97173.86
2018-05-15T12:21:01.056Z,97179.73
2018-05-15T12:23:30.781Z,97179.34
2018-05-15T12:26:00.318Z,97180.59
2018-05-15T12:28:31.099Z,97190.80
2018-05-15T12:31:00.625Z,97189.50
2018-05-15T12:33:31.851Z,97186.31
2018-05-15T12:36:01.431Z,97197.66
2018-05-15T12:38:33.300Z,97190.27
2018-05-15T12:41:04.853Z,97192.91
2018-05-15T12:43:34.357Z,97189.34
2018-05-15T12:46:05.323Z,97179.47
2018-05-15T12:48:35.271Z,97171.56
2018-05-15T12:51:04.995Z,97177.67
2018-05-15T12:53:34.670Z,97169.09
2018-05-15T12:56:04.367Z,97172.66
2018-05-15T12:59:13.842Z,97172.39
2018-05-15T13:01:49.803Z,97174.14
2018-05-15T13:04:44.508Z,97172.36
2018-05-15T13:10:52.701Z,97167.33
2018-05-15T13:13:22.209Z,97175.93
2018-05-15T13:15:52.088Z,97186.77
2018-05-15T13:18:22.012Z,97180.50
2018-05-15T13:20:51.616Z,97188.59
2018-05-15T13:23:21.245Z,97194.41
2018-05-15T13:25:51.628Z,97197.78
2018-05-15T13:28:22.528Z,97209.27
2018-05-15T13:30:52.091Z,97200.18
2018-05-15T13:33:21.570Z,97198.77
2018-05-15T13:35:51.982Z,97192.52
2018-05-15T13:38:23.469Z,97195.47
2018-05-15T13:40:53.035Z,97195.63
2018-05-15T13:43:22.502Z,97186.55
2018-05-15T13:45:53.490Z,97199.22
2018-05-15T13:48:24.255Z,97184.94
2018-05-15T13:50:55.100Z,97184.73
2018-05-15T13:53:25.475Z,97176.99
2018-05-15T13:56:01.843Z,97173.05
2018-05-15T13:58:40.773Z,97172.50
2018-05-15T14:01:10.513Z,97166.84
2018-05-15T14:03:41.208Z,97166.27
2018-05-15T14:06:10.911Z,97167.27
2018-05-15T14:08:40.846Z,97167.47
2018-05-15T14:11:10.731Z,97169.44
2018-05-15T14:13:40.807Z,97167.85
2018-05-15T14:16:11.110Z,97171.02
2018-05-15T14:18:40.822Z,97171.12
2018-05-15T14:21:11.157Z,97170.02
2018-05-15T14:23:41.762Z,97168.04
2018-05-15T14:26:12.202Z,97172.59
2018-05-15T14:28:43.212Z,97173.16
2018-05-15T14:31:12.959Z,97167.92
2018-05-15T14:33:43.343Z,97176.73
2018-05-15T14:36:12.946Z,97172.03
2018-05-15T14:38:42.986Z,97166.07
2018-05-15T14:41:13.207Z,97169.03
2018-05-15T14:43:42.962Z,97166.33
2018-05-15T14:46:14.778Z,97162.38
2018-05-15T14:48:44.379Z,97163.67
2018-05-15T14:51:29.638Z,97175.36
2018-05-15T14:54:07.771Z,97161.36
2018-05-15T14:56:37.344Z,97173.86
2018-05-15T14:59:07.588Z,97179.52
2018-05-15T15:01:38.057Z,97185.84
2018-05-15T15:04:07.593Z,97179.42
2018-05-15T15:06:37.948Z,97188.91
2018-05-15T15:09:07.487Z,97179.73
2018-05-15T15:11:37.094Z,97182.56
2018-05-15T15:14:06.802Z,97177.62
2018-05-15T15:16:36.368Z,97172.20
2018-05-15T15:19:06.115Z,97173.80
2018-05-15T15:21:35.656Z,97178.11
2018-05-15T15:24:06.645Z,97172.05
2018-05-15T15:26:36.167Z,97173.88
2018-05-15T15:29:07.311Z,97173.58
2018-05-15T15:31:36.841Z,97166.88
2018-05-15T15:34:06.393Z,97165.57
2018-05-15T15:36:37.739Z,97164.38
2018-05-15T15:39:08.419Z,97158.52
2018-05-15T15:41:38.084Z,97160.56
2018-05-15T15:44:07.580Z,97161.56
2018-05-15T15:46:37.239Z,97160.55
2018-05-15T15:49:07.591Z,97161.59
2018-05-15T15:51:38.962Z,97158.19
2018-05-15T15:54:09.345Z,97159.21
2018-05-15T15:56:38.854Z,97154.52
2018-05-15T15:59:09.266Z,97163.76
2018-05-15T16:01:38.853Z,97162.52
2018-05-15T16:04:08.525Z,97155.02
2018-05-15T16:06:38.371Z,97156.81
2018-05-15T16:09:10.414Z,97154.56
2018-05-15T16:11:48.311Z,97158.08
2018-05-15T16:14:20.148Z,97156.20
2018-05-15T16:16:59.503Z,97157.66
2018-05-15T16:19:49.067Z,97159.38
2018-05-15T16:22:25.582Z,97153.72
2018-05-15T16:24:55.318Z,97158.73
2018-05-15T16:27:29.241Z,97159.67
2018-05-15T16:29:58.776Z,97160.16
2018-05-15T16:32:29.048Z,97162.65
2018-05-15T16:34:58.661Z,97165.84
2018-05-15T16:37:29.369Z,97163.81
2018-05-15T16:39:58.976Z,97165.72
2018-05-15T16:42:28.668Z,97161.44
2018-05-15T16:48:23.627Z,97172.01
2018-05-15T16:50:54.188Z,97172.98
2018-05-15T16:53:26.320Z,97169.80
2018-05-15T16:55:55.844Z,97174.89
2018-05-15T16:58:25.340Z,97177.06
2018-05-15T17:00:54.936Z,97176.95
2018-05-15T17:03:28.494Z,97180.02
2018-05-15T17:05:58.494Z,97172.30
2018-05-15T17:08:28.841Z,97170.25
2018-05-15T17:10:59.676Z,97164.44
2018-05-15T17:13:30.943Z,97172.38
2018-05-15T17:16:01.440Z,97173.36
2018-05-15T17:18:31.949Z,97176.95
2018-05-15T17:21:01.619Z,97173.80
2018-05-15T17:23:31.779Z,97175.97
2018-05-15T17:26:01.386Z,97170.09
2018-05-15T17:28:31.096Z,97175.95
2018-05-15T17:31:04.372Z,97174.41
2018-05-15T17:33:36.144Z,97185.91
2018-05-15T17:36:06.937Z,97186.38
2018-05-15T17:38:37.070Z,97195.61
2018-05-15T17:41:23.686Z,97188.50
2018-05-15T17:43:54.136Z,97190.69
2018-05-15T17:46:24.167Z,97196.58
2018-05-15T17:48:55.515Z,97201.09
2018-05-15T17:51:26.162Z,97207.72
2018-05-15T17:53:55.801Z,97209.10
2018-05-15T17:56:26.727Z,97207.77
2018-05-15T18:10:15.214Z,97210.39
2018-05-15T18:12:46.719Z,97211.33
2018-05-15T18:15:20.184Z,97217.64
2018-05-15T18:17:50.998Z,97229.45
2018-05-15T18:20:20.794Z,97218.47
2018-05-15T18:22:50.842Z,97218.01
2018-05-15T18:28:36.629Z,97217.53
2018-05-15T18:31:06.362Z,97226.84
2018-05-15T18:33:36.992Z,97238.13
2018-05-15T18:36:09.048Z,97236.63
2018-05-15T18:38:43.998Z,97238.25
2018-05-15T18:41:20.268Z,97242.88
2018-05-15T18:44:16.707Z,97236.84
2018-05-15T18:47:20.805Z,97240.08
2018-05-15T18:49:54.934Z,97251.73
2018-05-15T18:52:24.455Z,97246.91
2018-05-15T18:54:54.972Z,97253.14
2018-05-15T18:57:24.768Z,97254.12
2018-05-15T18:59:54.487Z,97254.33
2018-05-15T19:02:24.100Z,97254.79
2018-05-15T19:04:53.775Z,97256.66
2018-05-15T19:07:23.535Z,97257.37
2018-05-15T19:09:53.026Z,97263.94
2018-05-15T19:12:23.343Z,97260.67
2018-05-15T19:14:52.881Z,97266.77
2018-05-15T19:17:22.453Z,97266.54
2018-05-15T19:19:53.013Z,97270.11
2018-05-15T19:22:22.610Z,97278.40
2018-05-15T19:24:52.205Z,97278.95
2018-05-15T19:27:21.940Z,97279.28
2018-05-15T19:29:52.105Z,97291.85
2018-05-15T19:35:28.226Z,97297.02
2018-05-15T19:37:57.930Z,97303.02
2018-05-15T19:40:30.454Z,97303.42
2018-05-15T19:43:00.274Z,97305.23
2018-05-15T19:45:29.938Z,97299.44
2018-05-15T19:48:01.159Z,97300.55
2018-05-15T19:50:30.976Z,97302.56
2018-05-15T19:53:00.597Z,97307.34
2018-05-15T19:55:31.188Z,97307.70
2018-05-15T19:58:01.069Z,97318.46
2018-05-15T20:00:31.670Z,97315.20
2018-05-15T20:03:02.834Z,97324.06
2018-05-15T20:05:33.390Z,97317.36
2018-05-15T20:08:05.329Z,97323.16
2018-05-15T20:10:35.714Z,97324.39
2018-05-15T20:13:05.293Z,97327.61
2018-05-15T20:15:35.729Z,97331.80
2018-05-15T20:18:05.339Z,97327.47
2018-05-15T20:20:34.978Z,97338.02
2018-05-15T20:23:07.447Z,97336.50
2018-05-15T20:25:38.589Z,97334.86
2018-05-15T20:28:08.227Z,97332.77
2018-05-15T20:30:38.034Z,97344.09
2018-05-15T20:33:08.228Z,97341.09
2018-05-15T20:35:38.649Z,97344.61
2018-05-15T20:38:08.806Z,97344.09
2018-05-15T20:40:39.700Z,97340.16
2018-05-15T20:43:09.458Z,97339.73
2018-05-15T20:45:39.549Z,97333.77
2018-05-15T20:48:10.121Z,97344.64
2018-05-15T20:50:40.523Z,97342.45
2018-05-15T20:53:51.954Z,97340.33
2018-05-15T20:56:21.604Z,97340.69
2018-05-15T20:58:52.052Z,97345.80
2018-05-15T21:01:21.808Z,97338.52
2018-05-15T21:03:52.381Z,97348.73
2018-05-15T21:06:21.974Z,97346.81
2018-05-15T21:08:52.394Z,97351.02
2018-05-15T21:11:23.667Z,97351.34
2018-05-15T21:13:55.248Z,97351.53
2018-05-15T21:16:24.900Z,97355.08
2018-05-15T21:18:54.504Z,97352.98
2018-05-15T21:21:24.101Z,97360.70
2018-05-15T21:23:54.678Z,97360.54
2018-05-15T21:26:24.378Z,97352.03
2018-05-15T21:28:53.967Z,97357.98
2018-05-15T21:31:24.405Z,97357.41
2018-05-15T21:33:54.035Z,97357.66
2018-05-15T21:36:24.177Z,97349.94
2018-05-15T21:38:53.749Z,97344.73
2018-05-15T21:41:23.368Z,97351.73
2018-05-15T21:43:52.972Z,97358.13
2018-05-15T21:46:24.013Z,97359.36
2018-05-15T21:48:53.555Z,97367.70
2018-05-15T21:51:23.105Z,97366.77
2018-05-15T21:53:53.456Z,97365.42
2018-05-15T21:56:23.003Z,97360.87
2018-05-15T21:58:53.160Z,97375.50
2018-05-15T22:01:23.601Z,97369.02
2018-05-15T22:03:54.800Z,97372.23
2018-05-15T22:06:25.049Z,97367.52
2018-05-15T22:08:54.588Z,97361.45
2018-05-15T22:11:23.361Z,97367.04
2018-05-15T22:14:11.174Z,97369.02
2018-05-15T22:17:04.379Z,97371.98
2018-05-15T22:19:58.295Z,97380.57
2018-05-15T22:22:32.931Z,97380.81
2018-05-15T22:25:03.566Z,97381.64
2018-05-15T22:27:34.138Z,97380.13
2018-05-15T22:30:04.069Z,97388.64
2018-05-15T22:32:33.876Z,97391.33
2018-05-15T22:35:03.598Z,97387.46
2018-05-15T22:37:34.333Z,97383.92
2018-05-15T22:40:04.028Z,97378.52
2018-05-15T22:42:33.782Z,97380.31
2018-05-15T22:45:04.099Z,97378.34
2018-05-15T22:47:33.800Z,97387.18
2018-05-15T22:50:04.440Z,97390.14
2018-05-15T22:52:34.273Z,97396.04
2018-05-15T22:55:04.027Z,97395.52
2018-05-15T22:57:33.758Z,97392.72
2018-05-15T23:00:03.413Z,97399.80
2018-05-15T23:02:35.262Z,97402.32
2018-05-15T23:05:09.128Z,97398.23
2018-05-15T23:07:38.886Z,97399.73
2018-05-15T23:10:22.869Z,97393.51
2018-05-15T23:12:54.236Z,97394.00
2018-05-15T23:15:24.467Z,97398.88
2018-05-15T23:17:55.241Z,97395.01
2018-05-15T23:20:24.938Z,97398.05
2018-05-15T23:22:55.583Z,97392.67
2018-05-15T23:25:26.760Z,97393.83
2018-05-15T23:27:57.256Z,97391.58
2018-05-15T23:30:27.647Z,97388.89
2018-05-15T23:32:57.387Z,97392.82
2018-05-15T23:35:27.885Z,97387.96
2018-05-15T23:37:57.469Z,97379.87
2018-05-15T23:40:27.322Z,97380.14
2018-05-15T23:42:59.597Z,97378.94
2018-05-15T23:45:29.926Z,97372.73
2018-05-15T23:48:00.307Z,97378.60
2018-05-15T23:50:29.911Z,97374.19
2018-05-15T23:52:59.757Z,97373.94
2018-05-15T23:55:30.106Z,97373.69
2018-05-15T23:58:00.582Z,97378.55
